Time;durP1;ratioP1;P1;durP2;ratioP2;P2;SDS_P1;SDS_P2;PMS_P1;PMS_P2;Temp;Humidity;BMP_temperature;BMP_pressure;BME280_temperature;BME280_humidity;BME280_pressure;Samples;Min_cycle;Max_cycle;Signal;HPM_P1;HPM_P2
2022/01/06 00:00:44;;;;;;;20.80;6.78;;;2.80;99.90;;;;;;5066035;28;20075;-73
2022/01/06 00:03:10;;;;;;;28.60;5.32;;;2.70;99.90;;;;;;5069096;28;20567;-73
2022/01/06 00:05:36;;;;;;;28.98;6.22;;;2.70;99.90;;;;;;5068457;28;20122;-73
2022/01/06 00:08:02;;;;;;;22.65;6.82;;;2.60;99.90;;;;;;5067233;28;20048;-73
2022/01/06 00:10:30;;;;;;;24.08;5.32;;;2.60;99.90;;;;;;5065992;28;20440;-74
2022/01/06 00:15:39;;;;;;;26.25;6.30;;;2.50;99.90;;;;;;5064805;28;20075;-73
2022/01/06 00:25:48;;;;;;;;;;;2.20;99.90;;;;;;5069092;28;20052;-74
2022/01/06 00:28:14;;;;;;;35.33;6.22;;;2.10;99.90;;;;;;5067022;28;19920;-73
2022/01/06 00:30:40;;;;;;;22.40;6.43;;;2.10;99.90;;;;;;5067561;28;20041;-74
2022/01/06 00:33:06;;;;;;;37.85;6.68;;;2.10;99.90;;;;;;5066135;28;20421;-74
2022/01/06 00:35:32;;;;;;;34.33;7.35;;;2.20;99.90;;;;;;5068101;28;20044;-73
2022/01/06 00:37:57;;;;;;;32.20;6.53;;;2.20;99.90;;;;;;5067389;28;20086;-73
2022/01/06 00:40:23;;;;;;;34.10;5.70;;;2.30;99.90;;;;;;5068157;28;20461;-74
2022/01/06 00:42:49;;;;;;;28.85;7.03;;;2.30;99.90;;;;;;5067409;28;20529;-74
2022/01/06 00:45:14;;;;;;;36.22;7.18;;;2.40;99.90;;;;;;5068363;28;20055;-73
2022/01/06 00:47:40;;;;;;;30.70;6.72;;;2.50;99.90;;;;;;5066456;28;20485;-73
2022/01/06 00:50:06;;;;;;;40.10;6.00;;;2.50;99.90;;;;;;5067597;28;20417;-73
2022/01/06 00:52:33;;;;;;;29.85;6.32;;;2.60;99.90;;;;;;5064402;28;20033;-73
2022/01/06 00:54:58;;;;;;;28.88;5.88;;;2.80;99.90;;;;;;5067496;28;20056;-73
2022/01/06 00:57:24;;;;;;;26.02;5.93;;;2.80;99.90;;;;;;5062319;28;20041;-73
2022/01/06 00:59:50;;;;;;;31.67;5.68;;;2.90;99.90;;;;;;5067762;28;20039;-73
2022/01/06 01:02:16;;;;;;;30.88;5.90;;;2.90;99.90;;;;;;5079189;28;20090;-73
2022/01/06 01:04:41;;;;;;;33.13;6.45;;;2.90;99.90;;;;;;5063650;28;20053;-73
2022/01/06 01:07:07;;;;;;;26.83;5.80;;;2.80;99.90;;;;;;5062794;28;20048;-73
2022/01/06 01:09:33;;;;;;;28.58;6.82;;;2.70;99.90;;;;;;5063476;28;20044;-73
2022/01/06 01:12:02;;;;;;;22.35;5.05;;;2.70;99.90;;;;;;5065448;28;20501;-73
2022/01/06 01:14:32;;;;;;;29.08;7.38;;;2.60;99.90;;;;;;5064579;28;20057;-73
2022/01/06 01:17:01;;;;;;;32.92;7.07;;;2.50;99.90;;;;;;5068334;28;20123;-73
2022/01/06 01:19:29;;;;;;;30.58;5.45;;;2.40;99.90;;;;;;5067027;28;20053;-73
2022/01/06 01:21:55;;;;;;;23.83;6.22;;;2.40;99.90;;;;;;5066743;28;20036;-73
2022/01/06 01:24:22;;;;;;;29.85;5.68;;;2.30;99.90;;;;;;5066057;28;20576;-73
2022/01/06 01:26:49;;;;;;;23.00;5.75;;;2.30;99.90;;;;;;5066673;28;20059;-74
2022/01/06 01:29:18;;;;;;;22.42;4.68;;;2.20;99.90;;;;;;5067514;28;20048;-73
2022/01/06 01:31:49;;;;;;;25.85;6.22;;;2.20;99.90;;;;;;5068185;28;20045;-73
2022/01/06 01:34:20;;;;;;;25.67;5.35;;;2.20;99.90;;;;;;5066518;28;20055;-73
2022/01/06 01:36:46;;;;;;;23.23;5.53;;;2.10;99.90;;;;;;5064836;28;20146;-73
2022/01/06 01:39:12;;;;;;;19.40;5.50;;;2.10;99.90;;;;;;5066998;28;20124;-73
2022/01/06 01:41:38;;;;;;;29.30;6.05;;;2.00;99.90;;;;;;5068527;28;20048;-74
2022/01/06 01:44:11;;;;;;;37.85;5.80;;;2.00;99.90;;;;;;5070086;28;20123;-73
2022/01/06 01:46:43;;;;;;;19.75;5.72;;;2.00;99.90;;;;;;5069302;28;20523;-74
2022/01/06 01:49:16;;;;;;;28.95;6.10;;;2.00;99.90;;;;;;5070536;28;20056;-73
2022/01/06 01:51:43;;;;;;;29.08;6.43;;;2.00;99.90;;;;;;5070522;28;20055;-73
2022/01/06 01:54:09;;;;;;;37.80;5.85;;;2.00;99.90;;;;;;5070784;28;20048;-73
2022/01/06 01:56:34;;;;;;;45.72;5.53;;;2.00;99.90;;;;;;5069197;28;20067;-74
2022/01/06 01:59:00;;;;;;;16.52;4.53;;;2.00;99.90;;;;;;5068981;28;20389;-74
2022/01/06 02:01:26;;;;;;;27.67;5.50;;;2.00;99.90;;;;;;5068807;28;20056;-73
2022/01/06 02:03:51;;;;;;;37.10;6.07;;;2.00;99.90;;;;;;5067994;28;20044;-73
2022/01/06 02:06:19;;;;;;;37.85;5.78;;;1.90;99.90;;;;;;5069776;28;20056;-73
2022/01/06 02:08:45;;;;;;;26.88;5.35;;;1.90;99.90;;;;;;5069229;28;20044;-73
2022/01/06 02:11:10;;;;;;;26.63;5.05;;;1.90;99.90;;;;;;5069047;28;20036;-73
2022/01/06 02:14:06;;;;;;;28.35;6.20;;;1.90;99.90;;;;;;5070806;28;20043;-73
2022/01/06 02:16:32;;;;;;;22.15;4.22;;;1.90;99.90;;;;;;5063823;28;20068;-73
2022/01/06 02:18:58;;;;;;;20.45;5.68;;;1.80;99.90;;;;;;5068371;28;20048;-73
2022/01/06 02:21:24;;;;;;;22.38;4.63;;;1.80;99.90;;;;;;5068320;28;20112;-73
2022/01/06 02:23:50;;;;;;;23.70;5.57;;;1.70;99.90;;;;;;5066284;28;20033;-73
2022/01/06 02:26:16;;;;;;;29.70;6.05;;;1.70;99.90;;;;;;5056777;28;20045;-73
2022/01/06 02:28:42;;;;;;;20.48;4.93;;;1.60;99.90;;;;;;5067873;28;20047;-73
2022/01/06 02:31:08;;;;;;;21.23;4.00;;;1.60;99.90;;;;;;5066888;28;20048;-73
2022/01/06 02:33:35;;;;;;;23.23;3.97;;;1.50;99.90;;;;;;5066765;28;20132;-74
2022/01/06 02:36:01;;;;;;;27.67;4.95;;;1.50;99.90;;;;;;5071752;28;20052;-73
2022/01/06 02:38:26;;;;;;;16.90;5.45;;;1.40;99.90;;;;;;5069647;28;20086;-73
2022/01/06 02:40:52;;;;;;;17.98;3.95;;;1.40;99.90;;;;;;5067342;28;20047;-74
2022/01/06 02:43:21;;;;;;;30.17;4.57;;;1.40;99.90;;;;;;5068576;28;20040;-73
2022/01/06 02:45:47;;;;;;;22.08;4.55;;;1.30;99.90;;;;;;5072782;28;20905;-73
2022/01/06 02:48:14;;;;;;;28.60;6.07;;;1.30;99.90;;;;;;5068547;28;20127;-73
2022/01/06 02:50:47;;;;;;;31.40;5.72;;;1.30;99.90;;;;;;5068373;28;20055;-73
2022/01/06 02:53:14;;;;;;;39.20;5.55;;;1.30;99.90;;;;;;5067716;28;21025;-73
2022/01/06 02:55:53;;;;;;;17.88;4.45;;;1.30;99.90;;;;;;5083371;28;20086;-73
2022/01/06 02:58:20;;;;;;;40.85;5.72;;;1.30;99.90;;;;;;5068928;28;20054;-73
2022/01/06 03:00:46;;;;;;;31.45;5.90;;;1.30;99.90;;;;;;5066516;28;20044;-73
2022/01/06 03:03:12;;;;;;;20.88;4.85;;;1.30;99.90;;;;;;5074444;28;20085;-73
2022/01/06 03:05:37;;;;;;;23.30;5.82;;;1.40;99.90;;;;;;5076297;28;20049;-73
2022/01/06 03:08:03;;;;;;;19.98;4.68;;;1.40;99.90;;;;;;5070420;28;20417;-73
2022/01/06 03:10:36;;;;;;;20.85;5.35;;;1.40;99.90;;;;;;5069099;28;20055;-73
2022/01/06 03:13:03;;;;;;;26.08;5.10;;;1.40;99.90;;;;;;5067254;28;20052;-73
2022/01/06 03:15:28;;;;;;;25.50;4.72;;;1.40;99.90;;;;;;5067913;28;20123;-73
2022/01/06 03:17:56;;;;;;;18.90;4.85;;;1.40;99.90;;;;;;5067592;28;20152;-73
2022/01/06 03:20:23;;;;;;;22.52;5.45;;;1.40;99.90;;;;;;5069339;28;20044;-73
2022/01/06 03:22:50;;;;;;;21.05;6.03;;;1.40;99.90;;;;;;5067559;28;20091;-73
2022/01/06 03:25:16;;;;;;;39.92;6.05;;;1.40;99.90;;;;;;5063821;28;20057;-73
2022/01/06 03:27:42;;;;;;;27.50;6.85;;;1.40;99.90;;;;;;5066325;28;20536;-73
2022/01/06 03:30:12;;;;;;;22.95;5.30;;;1.50;99.90;;;;;;5067395;28;20045;-73
2022/01/06 03:32:37;;;;;;;53.60;7.43;;;1.50;99.90;;;;;;5067445;28;20080;-73
2022/01/06 03:35:04;;;;;;;34.83;6.22;;;1.50;99.90;;;;;;5068987;28;20417;-73
2022/01/06 03:37:30;;;;;;;39.15;5.43;;;1.50;99.90;;;;;;5069593;28;20048;-73
2022/01/06 03:39:56;;;;;;;37.78;7.18;;;1.50;99.90;;;;;;5065729;28;20050;-73
2022/01/06 03:42:22;;;;;;;23.00;5.95;;;1.60;99.90;;;;;;5067534;28;20428;-73
2022/01/06 03:44:49;;;;;;;48.08;6.47;;;1.50;99.90;;;;;;5068286;28;20431;-73
2022/01/06 03:47:14;;;;;;;39.63;6.90;;;1.60;99.90;;;;;;5067954;28;20551;-73
2022/01/06 03:49:40;;;;;;;38.65;6.70;;;1.50;99.90;;;;;;5067918;28;20052;-73
2022/01/06 03:52:06;;;;;;;24.58;6.18;;;1.60;99.90;;;;;;5066370;28;20072;-73
2022/01/06 03:54:31;;;;;;;38.13;6.60;;;1.60;99.90;;;;;;5069551;28;20075;-73
2022/01/06 03:56:59;;;;;;;37.30;6.45;;;1.50;99.90;;;;;;5066083;28;20036;-73
2022/01/06 03:59:25;;;;;;;34.55;5.90;;;1.50;99.90;;;;;;5067529;28;20044;-73
2022/01/06 04:01:51;;;;;;;23.95;4.97;;;1.50;99.90;;;;;;5066650;28;20535;-73
2022/01/06 04:04:16;;;;;;;30.30;5.82;;;1.40;99.90;;;;;;5068027;28;20060;-73
2022/01/06 04:06:42;;;;;;;19.23;5.88;;;1.30;99.90;;;;;;5055801;28;20532;-73
2022/01/06 04:09:09;;;;;;;28.48;5.13;;;1.30;99.90;;;;;;5059917;28;20044;-72
2022/01/06 04:11:34;;;;;;;20.55;5.35;;;1.20;99.90;;;;;;5066637;28;20083;-73
2022/01/06 04:14:00;;;;;;;23.50;5.63;;;1.10;99.90;;;;;;5068761;28;20080;-73
2022/01/06 04:16:27;;;;;;;22.55;5.45;;;1.10;99.90;;;;;;5056613;28;20489;-73
2022/01/06 04:18:53;;;;;;;29.60;5.00;;;1.00;99.90;;;;;;5062188;28;20040;-73
2022/01/06 04:21:19;;;;;;;24.27;5.15;;;1.00;99.90;;;;;;5048210;28;20131;-73
2022/01/06 04:23:47;;;;;;;20.80;4.90;;;0.90;99.90;;;;;;5065464;28;20083;-73
2022/01/06 04:26:14;;;;;;;27.75;6.05;;;0.90;99.90;;;;;;5068635;28;20101;-73
2022/01/06 04:28:40;;;;;;;18.52;5.03;;;0.90;99.90;;;;;;5067136;28;20044;-72
2022/01/06 04:31:06;;;;;;;23.50;4.32;;;0.80;99.90;;;;;;5065979;28;20036;-73
2022/01/06 04:33:33;;;;;;;26.58;6.07;;;0.80;99.90;;;;;;5065842;28;20098;-72
2022/01/06 04:35:59;;;;;;;23.60;4.80;;;0.70;99.90;;;;;;5068632;28;20048;-73
2022/01/06 04:38:26;;;;;;;31.77;6.68;;;0.70;99.90;;;;;;5078877;28;20075;-72
2022/01/06 04:40:51;;;;;;;25.63;5.03;;;0.70;99.90;;;;;;5065279;28;20047;-72
2022/01/06 04:43:17;;;;;;;32.25;6.07;;;0.70;99.90;;;;;;5060134;28;20048;-73
2022/01/06 04:45:43;;;;;;;28.80;5.72;;;0.60;99.90;;;;;;5067559;28;20053;-72
2022/01/06 04:48:09;;;;;;;21.45;5.18;;;0.60;99.90;;;;;;5069645;28;20044;-72
2022/01/06 04:50:34;;;;;;;30.55;6.63;;;0.60;99.90;;;;;;5066917;28;20045;-72
2022/01/06 04:53:00;;;;;;;25.52;5.70;;;0.60;99.90;;;;;;5066250;28;20083;-72
2022/01/06 04:55:26;;;;;;;29.80;6.15;;;0.50;99.90;;;;;;5053144;28;20045;-72
2022/01/06 04:57:51;;;;;;;32.67;6.10;;;0.50;99.90;;;;;;5068959;28;20516;-72
2022/01/06 05:00:17;;;;;;;27.50;5.95;;;0.50;99.90;;;;;;5049331;28;20549;-72
2022/01/06 05:02:43;;;;;;;25.55;5.18;;;0.50;99.90;;;;;;5066025;28;20560;-72
2022/01/06 05:05:08;;;;;;;23.77;5.18;;;0.40;99.90;;;;;;5067660;28;20416;-72
2022/01/06 05:07:34;;;;;;;33.80;6.18;;;0.40;99.90;;;;;;5065961;28;20124;-72
2022/01/06 05:09:59;;;;;;;24.40;5.13;;;0.40;99.90;;;;;;5061588;28;20120;-72
2022/01/06 05:12:25;;;;;;;24.98;5.07;;;0.40;99.90;;;;;;5061137;28;20453;-72
2022/01/06 05:14:51;;;;;;;41.28;5.65;;;0.30;99.90;;;;;;5058059;28;20055;-72
2022/01/06 05:17:17;;;;;;;24.55;5.15;;;0.30;99.90;;;;;;5066921;28;20041;-72
2022/01/06 05:19:43;;;;;;;22.40;6.00;;;0.30;99.90;;;;;;5070454;28;20604;-72
2022/01/06 05:22:09;;;;;;;21.60;5.03;;;0.30;99.90;;;;;;5069727;28;20119;-72
2022/01/06 05:24:37;;;;;;;28.65;5.63;;;0.20;99.90;;;;;;5070503;28;20040;-72
2022/01/06 05:27:04;;;;;;;25.98;5.43;;;0.30;99.90;;;;;;5070073;28;20055;-72
2022/01/06 05:29:30;;;;;;;27.77;5.63;;;0.20;99.90;;;;;;5088420;28;20508;-72
2022/01/06 05:31:56;;;;;;;28.55;6.38;;;0.20;99.90;;;;;;5071172;28;20047;-72
2022/01/06 05:34:22;;;;;;;46.08;7.03;;;0.20;99.90;;;;;;5068953;28;20405;-72
2022/01/06 05:36:48;;;;;;;24.88;6.32;;;0.20;99.90;;;;;;5053949;28;20895;-72
2022/01/06 05:39:14;;;;;;;28.58;6.13;;;0.20;99.90;;;;;;5070658;28;20064;-72
2022/01/06 05:41:40;;;;;;;19.75;5.53;;;0.20;99.90;;;;;;5070809;28;20510;-72
2022/01/06 05:44:05;;;;;;;37.63;5.85;;;0.10;99.90;;;;;;5069405;28;20128;-72
2022/01/06 05:46:31;;;;;;;21.33;5.43;;;0.10;99.90;;;;;;5070517;28;20048;-72
2022/01/06 05:48:57;;;;;;;42.03;6.05;;;0.10;99.90;;;;;;5068830;28;20057;-72
2022/01/06 05:51:22;;;;;;;23.30;5.30;;;0.10;99.90;;;;;;5070574;28;20409;-72
2022/01/06 05:53:50;;;;;;;17.70;4.78;;;0.00;99.90;;;;;;5068929;28;20032;-72
2022/01/06 05:56:16;;;;;;;24.88;4.85;;;0.00;99.90;;;;;;5068930;28;20060;-72
2022/01/06 05:58:41;;;;;;;22.92;5.25;;;0.00;99.90;;;;;;5069397;28;20072;-72
2022/01/06 06:01:08;;;;;;;32.78;6.30;;;0.00;99.90;;;;;;5070578;28;20489;-72
2022/01/06 06:03:36;;;;;;;34.97;6.18;;;0.00;99.90;;;;;;5068608;28;20503;-72
2022/01/06 06:06:03;;;;;;;19.10;5.50;;;0.00;99.90;;;;;;5065274;28;20064;-72
2022/01/06 06:08:28;;;;;;;24.95;5.72;;;0.00;99.90;;;;;;5070570;28;20060;-72
2022/01/06 06:10:54;;;;;;;28.23;7.20;;;0.00;99.90;;;;;;5069505;28;20047;-72
2022/01/06 06:13:20;;;;;;;28.20;6.47;;;0.00;99.90;;;;;;5079409;28;20044;-72
2022/01/06 06:15:45;;;;;;;26.58;6.85;;;0.00;99.90;;;;;;5069304;28;20512;-72
2022/01/06 06:18:12;;;;;;;24.25;6.55;;;0.00;99.90;;;;;;5068218;28;20056;-72
2022/01/06 06:20:39;;;;;;;28.25;6.63;;;0.00;99.90;;;;;;5068971;28;20127;-72
2022/01/06 06:23:05;;;;;;;32.30;6.10;;;-0.10;99.90;;;;;;5069456;28;20167;-72
2022/01/06 06:25:30;;;;;;;39.05;7.25;;;-0.10;99.90;;;;;;5063612;28;20044;-72
2022/01/06 06:27:56;;;;;;;18.83;5.40;;;-0.10;99.90;;;;;;5068301;28;20036;-72
2022/01/06 06:30:22;;;;;;;18.83;5.68;;;-0.10;99.90;;;;;;5060079;28;20044;-72
2022/01/06 06:32:47;;;;;;;26.25;6.28;;;-0.10;99.90;;;;;;5067118;28;20044;-72
2022/01/06 06:35:13;;;;;;;24.85;6.45;;;-0.20;99.90;;;;;;5065693;28;20056;-72
2022/01/06 06:37:39;;;;;;;22.58;6.30;;;-0.10;99.90;;;;;;5067285;28;20083;-72
2022/01/06 06:40:06;;;;;;;26.27;5.90;;;-0.20;99.90;;;;;;5069343;28;20040;-72
2022/01/06 06:42:32;;;;;;;28.30;5.53;;;-0.20;99.90;;;;;;5069524;28;20048;-72
2022/01/06 06:44:58;;;;;;;31.23;6.78;;;-0.30;99.90;;;;;;5069130;28;20044;-72
2022/01/06 06:47:24;;;;;;;17.80;4.82;;;-0.20;99.90;;;;;;5067790;28;20280;-72
2022/01/06 06:49:50;;;;;;;26.25;5.45;;;-0.20;99.90;;;;;;5067732;28;20043;-72
2022/01/06 06:52:16;;;;;;;32.78;6.43;;;-0.20;99.90;;;;;;5065696;28;20048;-71
2022/01/06 06:54:42;;;;;;;25.25;5.78;;;-0.30;99.90;;;;;;5069993;28;20432;-72
2022/01/06 06:57:08;;;;;;;30.92;6.80;;;-0.30;99.90;;;;;;5069473;28;20501;-72
2022/01/06 06:59:35;;;;;;;38.05;5.75;;;-0.30;99.90;;;;;;5069498;28;20064;-72
2022/01/06 07:02:01;;;;;;;29.73;6.05;;;-0.30;99.90;;;;;;5077286;28;20049;-72
2022/01/06 07:04:26;;;;;;;18.63;5.20;;;-0.30;99.90;;;;;;5070579;28;20048;-72
2022/01/06 07:06:52;;;;;;;25.65;6.45;;;-0.40;99.90;;;;;;5069768;28;20041;-72
2022/01/06 07:09:17;;;;;;;18.90;5.68;;;-0.30;99.90;;;;;;5068648;28;20133;-72
2022/01/06 07:11:43;;;;;;;36.08;7.63;;;-0.30;99.90;;;;;;5057785;28;20098;-72
2022/01/06 07:14:09;;;;;;;34.95;6.18;;;-0.40;99.90;;;;;;5070119;28;20068;-72
2022/01/06 07:16:35;;;;;;;27.08;6.38;;;-0.30;99.90;;;;;;5067225;28;20049;-72
2022/01/06 07:19:01;;;;;;;28.40;6.75;;;-0.30;99.90;;;;;;5070152;28;20718;-72
2022/01/06 07:21:27;;;;;;;33.38;7.30;;;-0.40;99.90;;;;;;5063248;28;20170;-73
2022/01/06 07:23:53;;;;;;;42.15;7.28;;;-0.40;99.90;;;;;;5061216;28;20040;-72
2022/01/06 07:26:19;;;;;;;38.67;6.43;;;-0.40;99.90;;;;;;5060994;28;20130;-72
2022/01/06 07:28:45;;;;;;;25.92;6.32;;;-0.40;99.90;;;;;;5066461;28;20405;-72
2022/01/06 07:31:11;;;;;;;34.08;7.60;;;-0.40;99.90;;;;;;5056939;28;20036;-72
2022/01/06 07:33:37;;;;;;;24.48;5.93;;;-0.40;99.90;;;;;;5066589;28;20417;-72
2022/01/06 07:36:04;;;;;;;31.60;6.97;;;-0.40;99.90;;;;;;5066419;28;20047;-72
2022/01/06 07:38:29;;;;;;;23.75;6.68;;;-0.40;99.90;;;;;;5075513;28;20496;-72
2022/01/06 07:40:55;;;;;;;35.63;7.22;;;-0.40;99.90;;;;;;5063634;28;20047;-72
2022/01/06 07:43:22;;;;;;;28.30;6.65;;;-0.40;99.90;;;;;;5060868;28;20049;-72
2022/01/06 07:45:49;;;;;;;27.50;7.22;;;-0.40;99.90;;;;;;5067547;28;20133;-72
2022/01/06 07:48:17;;;;;;;38.90;7.60;;;-0.40;99.90;;;;;;5065281;28;20131;-72
2022/01/06 07:50:44;;;;;;;29.95;7.60;;;-0.40;99.90;;;;;;5058278;28;20101;-72
2022/01/06 07:53:10;;;;;;;25.65;6.72;;;-0.40;99.90;;;;;;5065767;28;20056;-72
2022/01/06 07:55:36;;;;;;;46.42;8.90;;;-0.40;99.90;;;;;;5066330;28;20141;-72
2022/01/06 07:58:02;;;;;;;40.00;8.75;;;-0.40;99.90;;;;;;5068615;28;20044;-72
2022/01/06 08:00:28;;;;;;;39.45;7.78;;;-0.40;99.90;;;;;;5067574;28;20080;-72
2022/01/06 08:02:54;;;;;;;23.25;7.18;;;-0.40;99.90;;;;;;5067206;28;20147;-72
2022/01/06 08:05:25;;;;;;;45.88;8.52;;;-0.40;99.90;;;;;;5066103;28;20064;-72
2022/01/06 08:07:50;;;;;;;36.33;8.23;;;-0.30;99.90;;;;;;5075213;28;20075;-72
2022/01/06 08:10:16;;;;;;;30.52;8.30;;;-0.30;99.90;;;;;;5065931;28;20497;-72
2022/01/06 08:12:42;;;;;;;39.42;8.43;;;-0.30;99.90;;;;;;5066689;28;20114;-72
2022/01/06 08:15:10;;;;;;;36.92;8.57;;;-0.30;99.90;;;;;;5065378;28;20494;-72
2022/01/06 08:17:36;;;;;;;23.52;6.78;;;-0.20;99.90;;;;;;5065548;28;20045;-72
2022/01/06 08:20:05;;;;;;;33.92;7.60;;;-0.20;99.90;;;;;;5068681;28;20040;-72
2022/01/06 08:22:31;;;;;;;41.38;8.60;;;-0.20;99.90;;;;;;5066919;28;20109;-72
2022/01/06 08:24:57;;;;;;;32.15;8.25;;;-0.10;99.90;;;;;;5058774;28;20040;-72
2022/01/06 08:27:23;;;;;;;50.25;8.85;;;-0.10;99.90;;;;;;5066144;28;20366;-72
2022/01/06 08:29:51;;;;;;;32.28;6.95;;;-0.10;99.90;;;;;;5068040;28;20415;-72
2022/01/06 08:32:17;;;;;;;37.85;7.72;;;-0.10;99.90;;;;;;5064829;28;20421;-71
2022/01/06 08:34:43;;;;;;;46.80;7.20;;;-0.10;99.90;;;;;;5070003;28;20060;-72
2022/01/06 08:37:08;;;;;;;49.97;8.93;;;-0.10;99.90;;;;;;5054250;28;20405;-72
2022/01/06 08:39:35;;;;;;;41.30;9.10;;;0.00;99.90;;;;;;5061033;28;20067;-73
2022/01/06 08:42:01;;;;;;;31.55;7.85;;;0.00;99.90;;;;;;5054029;28;20089;-73
2022/01/06 08:44:27;;;;;;;34.08;8.15;;;0.00;99.90;;;;;;5067224;28;20045;-73
2022/01/06 08:46:53;;;;;;;29.88;7.80;;;0.00;99.90;;;;;;5065849;28;20178;-71
2022/01/06 08:49:19;;;;;;;47.53;7.10;;;0.10;99.90;;;;;;5067502;28;20505;-71
2022/01/06 08:51:44;;;;;;;30.25;8.65;;;0.10;99.90;;;;;;5052419;28;20071;-70
2022/01/06 08:54:11;;;;;;;27.02;7.32;;;0.10;99.90;;;;;;5062829;28;20040;-71
2022/01/06 08:56:37;;;;;;;33.58;7.60;;;0.10;99.90;;;;;;5069500;28;20128;-71
2022/01/06 08:59:04;;;;;;;39.30;9.30;;;0.20;99.90;;;;;;5071794;28;20115;-71
2022/01/06 09:01:31;;;;;;;36.97;8.32;;;0.20;99.90;;;;;;5069246;28;20052;-71
2022/01/06 09:03:57;;;;;;;42.42;7.68;;;0.20;99.90;;;;;;5069683;28;20075;-71
2022/01/06 09:06:23;;;;;;;36.42;7.68;;;0.30;99.90;;;;;;5069173;28;20605;-71
2022/01/06 09:08:49;;;;;;;36.40;8.18;;;0.30;99.90;;;;;;5071207;28;20053;-70
2022/01/06 09:11:15;;;;;;;26.67;6.63;;;0.40;99.90;;;;;;5061376;28;20045;-71
2022/01/06 09:13:41;;;;;;;49.33;8.20;;;0.40;99.90;;;;;;5069477;28;20082;-71
2022/01/06 09:16:08;;;;;;;31.38;8.85;;;0.40;99.90;;;;;;5067824;28;20439;-71
2022/01/06 09:18:36;;;;;;;23.05;7.38;;;0.40;99.90;;;;;;5070334;28;20047;-71
2022/01/06 09:21:02;;;;;;;42.97;8.05;;;0.50;99.90;;;;;;5071366;28;20101;-72
2022/01/06 09:23:28;;;;;;;28.73;6.40;;;0.50;99.90;;;;;;5068642;28;20485;-71
2022/01/06 09:25:54;;;;;;;34.47;7.50;;;0.50;99.90;;;;;;5065061;28;20080;-71
2022/01/06 09:28:20;;;;;;;29.88;8.55;;;0.50;99.90;;;;;;5069189;28;20044;-71
2022/01/06 09:30:46;;;;;;;29.65;7.30;;;0.60;99.90;;;;;;5067990;28;20041;-71
2022/01/06 09:33:13;;;;;;;35.30;6.68;;;0.60;99.90;;;;;;5070760;28;20051;-71
2022/01/06 09:35:41;;;;;;;29.77;7.30;;;0.70;99.90;;;;;;5070010;28;20390;-71
2022/01/06 09:38:07;;;;;;;53.83;9.30;;;0.70;99.90;;;;;;5074408;28;20040;-70
2022/01/06 09:40:32;;;;;;;41.72;9.27;;;0.80;99.90;;;;;;5064992;28;20310;-71
2022/01/06 09:42:58;;;;;;;31.30;6.70;;;1.00;99.90;;;;;;5060854;28;20079;-72
2022/01/06 09:45:27;;;;;;;28.80;8.13;;;1.20;99.90;;;;;;5071038;28;20390;-72
2022/01/06 09:47:54;;;;;;;29.35;8.75;;;1.50;99.90;;;;;;5060680;28;20870;-72
2022/01/06 09:50:20;;;;;;;37.15;8.48;;;1.70;99.90;;;;;;5066593;28;20044;-71
2022/01/06 09:52:47;;;;;;;48.42;10.70;;;1.80;99.90;;;;;;5068831;28;20069;-70
2022/01/06 09:55:13;;;;;;;42.70;8.35;;;2.10;99.90;;;;;;5060476;28;20421;-71
2022/01/06 09:57:39;;;;;;;36.30;8.80;;;2.20;99.90;;;;;;5070921;28;20052;-70
2022/01/06 10:00:08;;;;;;;40.55;8.07;;;2.30;99.90;;;;;;5070053;28;20052;-70
2022/01/06 10:02:37;;;;;;;27.92;8.43;;;2.40;99.90;;;;;;5068855;28;20055;-70
2022/01/06 10:05:03;;;;;;;30.92;9.27;;;2.50;99.90;;;;;;5060375;28;20071;-70
2022/01/06 10:07:40;;;;;;;42.53;9.63;;;2.60;99.90;;;;;;5069646;28;20083;-70
2022/01/06 10:10:12;;;;;;;30.08;8.02;;;2.80;99.90;;;;;;5058960;28;20056;-70
2022/01/06 10:12:40;;;;;;;30.67;8.35;;;2.90;99.90;;;;;;5067834;28;20072;-70
2022/01/06 10:15:27;;;;;;;39.92;8.77;;;3.00;99.90;;;;;;5053143;28;20056;-70
2022/01/06 10:17:53;;;;;;;43.35;8.52;;;3.00;99.90;;;;;;5062924;28;20048;-72
2022/01/06 10:20:22;;;;;;;44.92;9.73;;;3.10;99.90;;;;;;5069511;28;20045;-71
2022/01/06 10:22:51;;;;;;;35.92;9.32;;;3.20;99.90;;;;;;5067821;28;20107;-71
2022/01/06 10:25:18;;;;;;;37.38;10.65;;;3.20;99.90;;;;;;5051656;28;20049;-72
2022/01/06 10:27:46;;;;;;;32.83;8.82;;;3.20;99.90;;;;;;5068523;28;20131;-72
2022/01/06 10:30:13;;;;;;;49.72;11.80;;;3.30;99.90;;;;;;5066283;28;20059;-72
2022/01/06 10:32:40;;;;;;;45.38;11.13;;;3.30;99.90;;;;;;5067281;28;20082;-72
2022/01/06 10:35:08;;;;;;;39.33;9.43;;;3.30;99.90;;;;;;5066728;28;20048;-72
2022/01/06 10:37:40;;;;;;;31.45;8.52;;;3.40;99.90;;;;;;5067685;28;20094;-72
2022/01/06 10:40:16;;;;;;;36.90;8.60;;;3.40;99.90;;;;;;5067689;28;20048;-72
2022/01/06 10:42:45;;;;;;;26.67;9.40;;;3.50;99.90;;;;;;5060725;28;20182;-72
2022/01/06 10:45:15;;;;;;;36.20;9.48;;;3.60;99.90;;;;;;5067748;28;20072;-72
2022/01/06 10:47:44;;;;;;;29.63;9.32;;;3.70;99.90;;;;;;5069166;28;20055;-72
2022/01/06 10:50:31;;;;;;;30.92;9.55;;;3.80;99.90;;;;;;5068006;28;20048;-72
2022/01/06 10:53:03;;;;;;;32.38;9.60;;;3.80;99.90;;;;;;5069395;28;20036;-72
2022/01/06 10:55:34;;;;;;;25.70;8.95;;;3.90;99.90;;;;;;5067398;28;20040;-72
2022/01/06 10:58:04;;;;;;;35.63;9.25;;;4.00;99.90;;;;;;5069540;28;20475;-72
2022/01/06 11:00:42;;;;;;;32.63;8.70;;;4.10;99.90;;;;;;5063355;28;20058;-72
2022/01/06 11:03:22;;;;;;;35.95;8.98;;;4.20;99.90;;;;;;5067415;28;20119;-72
2022/01/06 11:05:59;;;;;;;51.20;7.75;;;4.30;99.90;;;;;;5068922;28;20593;-72
2022/01/06 11:08:28;;;;;;;41.13;8.25;;;4.40;99.90;;;;;;5069717;28;20056;-73
2022/01/06 11:13:34;;;;;;;35.92;8.63;;;4.50;99.90;;;;;;5061963;28;20064;-73
2022/01/06 11:16:00;;;;;;;38.10;9.15;;;4.60;99.90;;;;;;5067219;28;20040;-72
2022/01/06 11:18:26;;;;;;;26.75;9.27;;;4.70;99.90;;;;;;5068374;28;20052;-73
2022/01/06 11:21:22;;;;;;;27.67;8.73;;;4.80;99.90;;;;;;5062727;28;20412;-73
2022/01/06 11:23:48;;;;;;;24.52;8.05;;;4.90;99.90;;;;;;5065946;28;20468;-73
2022/01/06 11:26:21;;;;;;;35.47;7.75;;;4.90;99.90;;;;;;5064741;28;20123;-73
2022/01/06 11:28:56;;;;;;;30.42;8.48;;;5.10;99.90;;;;;;5067715;28;20044;-73
2022/01/06 11:31:23;;;;;;;31.55;9.68;;;5.10;99.90;;;;;;5066997;28;20044;-72
2022/01/06 11:33:52;;;;;;;30.40;7.67;;;5.20;99.90;;;;;;5075748;28;20071;-73
2022/01/06 11:36:32;;;;;;;28.98;7.45;;;5.30;99.90;;;;;;5067586;28;20857;-73
2022/01/06 11:39:04;;;;;;;37.47;7.63;;;5.40;99.90;;;;;;5061442;28;20500;-73
2022/01/06 11:41:48;;;;;;;28.98;8.18;;;5.50;99.90;;;;;;5064045;28;20412;-73
2022/01/06 11:44:22;;;;;;;20.15;6.28;;;5.60;99.90;;;;;;5064041;28;20048;-73
2022/01/06 11:46:52;;;;;;;29.38;6.75;;;5.70;99.90;;;;;;5065804;28;20443;-74
2022/01/06 11:49:40;;;;;;;25.58;6.28;;;5.70;99.90;;;;;;5069882;28;20503;-73
2022/01/06 11:52:11;;;;;;;37.27;7.93;;;5.80;99.90;;;;;;5061406;28;20049;-73
2022/01/06 11:54:47;;;;;;;44.00;9.20;;;5.80;99.90;;;;;;5043881;28;20301;-73
2022/01/06 11:57:13;;;;;;;42.33;7.93;;;5.80;99.90;;;;;;5059070;28;20131;-73
2022/01/06 11:59:39;;;;;;;34.13;8.27;;;5.80;99.90;;;;;;5065001;28;20556;-73
2022/01/06 12:02:04;;;;;;;34.33;7.05;;;5.90;99.90;;;;;;5057713;28;20075;-73
2022/01/06 12:04:30;;;;;;;31.52;9.13;;;5.90;99.90;;;;;;5065378;28;20157;-73
2022/01/06 12:07:03;;;;;;;32.33;7.28;;;5.90;99.90;;;;;;5069833;28;20138;-73
2022/01/06 12:09:29;;;;;;;21.95;6.22;;;6.00;99.90;;;;;;5070853;28;20036;-73
2022/01/06 12:12:01;;;;;;;40.33;7.45;;;6.00;99.90;;;;;;5065454;28;20094;-73
2022/01/06 12:14:27;;;;;;;30.05;5.50;;;6.00;99.90;;;;;;5067385;28;20515;-73
2022/01/06 12:17:07;;;;;;;29.40;7.70;;;6.00;99.90;;;;;;5064422;28;20072;-74
2022/01/06 12:19:34;;;;;;;32.60;7.15;;;6.00;99.90;;;;;;5056645;28;20127;-74
2022/01/06 12:22:00;;;;;;;24.67;6.45;;;6.10;99.90;;;;;;5066213;28;20052;-74
2022/01/06 12:24:27;;;;;;;17.02;6.05;;;6.00;99.90;;;;;;5058658;28;20052;-74
2022/01/06 12:26:54;;;;;;;20.23;6.82;;;6.00;99.90;;;;;;5064043;28;20405;-74
2022/01/06 12:29:22;;;;;;;32.03;6.95;;;6.10;99.90;;;;;;5065740;28;20040;-73
2022/01/06 12:31:49;;;;;;;31.58;6.55;;;6.10;99.90;;;;;;5065182;28;20051;-73
2022/01/06 12:34:16;;;;;;;25.30;5.68;;;6.10;99.90;;;;;;5065719;28;20044;-73
2022/01/06 12:36:45;;;;;;;30.13;7.00;;;6.10;99.90;;;;;;5064739;28;20082;-73
2022/01/06 12:39:15;;;;;;;47.35;7.13;;;6.10;99.90;;;;;;5065299;28;20052;-73
2022/01/06 12:41:41;;;;;;;36.03;7.13;;;6.10;99.90;;;;;;5066508;28;20398;-72
2022/01/06 12:44:09;;;;;;;33.78;6.85;;;6.10;99.90;;;;;;5067429;28;20598;-73
2022/01/06 12:46:41;;;;;;;30.88;11.18;;;6.10;99.90;;;;;;5066533;28;20076;-73
2022/01/06 12:49:08;;;;;;;29.23;9.80;;;6.10;99.90;;;;;;5066477;28;20056;-74
2022/01/06 12:51:43;;;;;;;30.08;7.70;;;6.10;99.90;;;;;;5065857;28;20044;-73
2022/01/06 12:54:13;;;;;;;24.67;6.38;;;6.10;99.90;;;;;;5066639;28;20075;-74
2022/01/06 12:56:40;;;;;;;25.80;6.85;;;6.10;99.90;;;;;;5064761;28;20048;-74
2022/01/06 12:59:17;;;;;;;20.90;5.18;;;6.10;99.90;;;;;;5063719;28;20049;-73